sensor_id;sensor_type;location;lat;lon;timestamp;P1;durP1;ratioP1;P2;durP2;ratioP2
15677;SDS011;7939;50.814;6.368;2023-06-10T00:01:23;8.50;;;7.70;;
15677;SDS011;7939;50.814;6.368;2023-06-10T00:03:51;8.48;;;7.68;;
15677;SDS011;7939;50.814;6.368;2023-06-10T00:06:18;9.10;;;8.30;;
15677;SDS011;7939;50.814;6.368;2023-06-10T00:08:44;10.15;;;7.80;;
15677;SDS011;7939;50.814;6.368;2023-06-10T00:11:12;9.85;;;7.65;;
15677;SDS011;7939;50.814;6.368;2023-06-10T00:13:39;8.00;;;7.20;;
15677;SDS011;7939;50.814;6.368;2023-06-10T00:16:05;9.80;;;7.53;;
15677;SDS011;7939;50.814;6.368;2023-06-10T00:18:33;8.75;;;7.85;;
15677;SDS011;7939;50.814;6.368;2023-06-10T00:21:03;8.25;;;7.45;;
15677;SDS011;7939;50.814;6.368;2023-06-10T00:23:31;8.52;;;7.13;;
15677;SDS011;7939;50.814;6.368;2023-06-10T00:26:02;10.85;;;7.60;;
15677;SDS011;7939;50.814;6.368;2023-06-10T00:28:29;8.95;;;8.15;;
15677;SDS011;7939;50.814;6.368;2023-06-10T00:30:56;9.15;;;8.25;;
15677;SDS011;7939;50.814;6.368;2023-06-10T00:33:23;8.98;;;7.72;;
15677;SDS011;7939;50.814;6.368;2023-06-10T00:35:50;8.93;;;8.13;;
15677;SDS011;7939;50.814;6.368;2023-06-10T00:38:17;8.65;;;7.85;;
15677;SDS011;7939;50.814;6.368;2023-06-10T00:40:44;8.18;;;7.22;;
15677;SDS011;7939;50.814;6.368;2023-06-10T00:43:11;8.52;;;7.75;;
15677;SDS011;7939;50.814;6.368;2023-06-10T00:45:38;9.35;;;8.32;;
15677;SDS011;7939;50.814;6.368;2023-06-10T00:48:04;9.48;;;7.78;;
15677;SDS011;7939;50.814;6.368;2023-06-10T00:50:31;8.90;;;7.95;;
15677;SDS011;7939;50.814;6.368;2023-06-10T00:52:59;8.30;;;7.53;;
15677;SDS011;7939;50.814;6.368;2023-06-10T00:55:29;8.60;;;7.72;;
15677;SDS011;7939;50.814;6.368;2023-06-10T00:57:56;7.82;;;7.07;;
15677;SDS011;7939;50.814;6.368;2023-06-10T01:00:23;9.13;;;8.00;;
15677;SDS011;7939;50.814;6.368;2023-06-10T01:02:49;11.38;;;8.00;;
15677;SDS011;7939;50.814;6.368;2023-06-10T01:05:17;9.15;;;7.85;;
15677;SDS011;7939;50.814;6.368;2023-06-10T01:07:48;9.45;;;7.22;;
15677;SDS011;7939;50.814;6.368;2023-06-10T01:10:22;8.20;;;7.50;;
15677;SDS011;7939;50.814;6.368;2023-06-10T01:12:58;8.23;;;7.32;;
15677;SDS011;7939;50.814;6.368;2023-06-10T01:15:28;8.75;;;7.78;;
15677;SDS011;7939;50.814;6.368;2023-06-10T01:17:55;8.80;;;7.60;;
15677;SDS011;7939;50.814;6.368;2023-06-10T01:20:24;10.13;;;7.95;;
15677;SDS011;7939;50.814;6.368;2023-06-10T01:22:54;8.57;;;7.72;;
15677;SDS011;7939;50.814;6.368;2023-06-10T01:25:22;9.68;;;7.35;;
15677;SDS011;7939;50.814;6.368;2023-06-10T01:27:53;8.82;;;7.60;;
15677;SDS011;7939;50.814;6.368;2023-06-10T01:30:25;8.57;;;7.70;;
15677;SDS011;7939;50.814;6.368;2023-06-10T01:32:58;7.97;;;7.20;;
15677;SDS011;7939;50.814;6.368;2023-06-10T01:35:27;8.27;;;7.47;;
15677;SDS011;7939;50.814;6.368;2023-06-10T01:37:58;9.32;;;8.05;;
15677;SDS011;7939;50.814;6.368;2023-06-10T01:40:28;8.07;;;7.22;;
15677;SDS011;7939;50.814;6.368;2023-06-10T01:42:55;8.60;;;7.70;;
15677;SDS011;7939;50.814;6.368;2023-06-10T01:45:22;9.38;;;7.75;;
15677;SDS011;7939;50.814;6.368;2023-06-10T01:47:49;10.23;;;7.75;;
15677;SDS011;7939;50.814;6.368;2023-06-10T01:50:16;8.65;;;7.75;;
15677;SDS011;7939;50.814;6.368;2023-06-10T01:52:43;9.27;;;8.32;;
15677;SDS011;7939;50.814;6.368;2023-06-10T01:55:10;8.98;;;8.15;;
15677;SDS011;7939;50.814;6.368;2023-06-10T01:57:37;8.68;;;7.68;;
15677;SDS011;7939;50.814;6.368;2023-06-10T02:00:04;8.45;;;7.65;;
15677;SDS011;7939;50.814;6.368;2023-06-10T02:02:32;10.52;;;8.40;;
15677;SDS011;7939;50.814;6.368;2023-06-10T02:04:59;8.93;;;8.10;;
15677;SDS011;7939;50.814;6.368;2023-06-10T02:07:26;9.05;;;7.93;;
15677;SDS011;7939;50.814;6.368;2023-06-10T02:09:52;7.97;;;7.28;;
15677;SDS011;7939;50.814;6.368;2023-06-10T02:12:20;8.45;;;7.60;;
15677;SDS011;7939;50.814;6.368;2023-06-10T02:14:47;9.00;;;8.10;;
15677;SDS011;7939;50.814;6.368;2023-06-10T02:17:13;7.78;;;7.07;;
15677;SDS011;7939;50.814;6.368;2023-06-10T02:19:40;9.20;;;7.78;;
15677;SDS011;7939;50.814;6.368;2023-06-10T02:22:08;9.02;;;8.13;;
15677;SDS011;7939;50.814;6.368;2023-06-10T02:24:35;9.52;;;8.23;;
15677;SDS011;7939;50.814;6.368;2023-06-10T02:27:03;9.43;;;8.52;;
15677;SDS011;7939;50.814;6.368;2023-06-10T02:29:33;9.43;;;8.52;;
15677;SDS011;7939;50.814;6.368;2023-06-10T02:32:01;9.82;;;8.93;;
15677;SDS011;7939;50.814;6.368;2023-06-10T02:34:28;11.00;;;10.00;;
15677;SDS011;7939;50.814;6.368;2023-06-10T02:36:56;10.98;;;9.32;;
15677;SDS011;7939;50.814;6.368;2023-06-10T02:39:22;10.45;;;8.65;;
15677;SDS011;7939;50.814;6.368;2023-06-10T02:41:49;9.63;;;8.73;;
15677;SDS011;7939;50.814;6.368;2023-06-10T02:44:17;9.88;;;8.98;;
15677;SDS011;7939;50.814;6.368;2023-06-10T02:46:45;10.55;;;9.50;;
15677;SDS011;7939;50.814;6.368;2023-06-10T02:49:12;11.07;;;9.93;;
15677;SDS011;7939;50.814;6.368;2023-06-10T02:51:39;13.02;;;11.73;;
15677;SDS011;7939;50.814;6.368;2023-06-10T02:54:05;11.18;;;9.98;;
15677;SDS011;7939;50.814;6.368;2023-06-10T02:56:32;12.70;;;10.80;;
15677;SDS011;7939;50.814;6.368;2023-06-10T02:58:59;11.07;;;9.98;;
15677;SDS011;7939;50.814;6.368;2023-06-10T03:01:25;10.73;;;9.80;;
15677;SDS011;7939;50.814;6.368;2023-06-10T03:03:53;10.65;;;9.55;;
15677;SDS011;7939;50.814;6.368;2023-06-10T03:06:21;14.52;;;10.32;;
15677;SDS011;7939;50.814;6.368;2023-06-10T03:08:49;12.98;;;11.02;;
15677;SDS011;7939;50.814;6.368;2023-06-10T03:11:16;12.52;;;10.93;;
15677;SDS011;7939;50.814;6.368;2023-06-10T03:13:44;13.27;;;11.02;;
15677;SDS011;7939;50.814;6.368;2023-06-10T03:16:11;12.15;;;10.07;;
15677;SDS011;7939;50.814;6.368;2023-06-10T03:18:38;11.05;;;9.70;;
15677;SDS011;7939;50.814;6.368;2023-06-10T03:21:07;10.35;;;8.70;;
15677;SDS011;7939;50.814;6.368;2023-06-10T03:23:34;10.80;;;8.75;;
15677;SDS011;7939;50.814;6.368;2023-06-10T03:26:01;8.63;;;7.88;;
15677;SDS011;7939;50.814;6.368;2023-06-10T03:28:30;10.02;;;8.43;;
15677;SDS011;7939;50.814;6.368;2023-06-10T03:30:56;8.90;;;8.00;;
15677;SDS011;7939;50.814;6.368;2023-06-10T03:33:23;9.02;;;8.07;;
15677;SDS011;7939;50.814;6.368;2023-06-10T03:35:49;9.60;;;8.60;;
15677;SDS011;7939;50.814;6.368;2023-06-10T03:38:17;11.32;;;8.10;;
15677;SDS011;7939;50.814;6.368;2023-06-10T03:40:44;9.40;;;8.45;;
15677;SDS011;7939;50.814;6.368;2023-06-10T03:43:11;9.80;;;8.07;;
15677;SDS011;7939;50.814;6.368;2023-06-10T03:45:37;9.55;;;8.18;;
15677;SDS011;7939;50.814;6.368;2023-06-10T03:48:04;8.82;;;7.93;;
15677;SDS011;7939;50.814;6.368;2023-06-10T03:50:33;9.35;;;8.50;;
15677;SDS011;7939;50.814;6.368;2023-06-10T03:53:00;8.43;;;7.63;;
15677;SDS011;7939;50.814;6.368;2023-06-10T03:55:28;8.65;;;7.75;;
15677;SDS011;7939;50.814;6.368;2023-06-10T03:57:54;8.52;;;7.70;;
15677;SDS011;7939;50.814;6.368;2023-06-10T04:00:21;9.18;;;7.32;;
15677;SDS011;7939;50.814;6.368;2023-06-10T04:02:48;10.57;;;8.10;;
15677;SDS011;7939;50.814;6.368;2023-06-10T04:05:17;8.50;;;7.43;;
15677;SDS011;7939;50.814;6.368;2023-06-10T04:07:46;8.80;;;7.90;;
15677;SDS011;7939;50.814;6.368;2023-06-10T04:10:14;10.95;;;7.60;;
15677;SDS011;7939;50.814;6.368;2023-06-10T04:12:42;10.05;;;8.13;;
15677;SDS011;7939;50.814;6.368;2023-06-10T04:15:09;9.57;;;8.05;;
15677;SDS011;7939;50.814;6.368;2023-06-10T04:17:36;9.90;;;8.18;;
15677;SDS011;7939;50.814;6.368;2023-06-10T04:20:02;8.95;;;7.95;;
15677;SDS011;7939;50.814;6.368;2023-06-10T04:22:32;12.32;;;8.38;;
15677;SDS011;7939;50.814;6.368;2023-06-10T04:24:59;8.43;;;7.63;;
15677;SDS011;7939;50.814;6.368;2023-06-10T04:27:25;10.00;;;8.32;;
15677;SDS011;7939;50.814;6.368;2023-06-10T04:29:53;9.32;;;8.25;;
15677;SDS011;7939;50.814;6.368;2023-06-10T04:32:20;8.90;;;7.97;;
15677;SDS011;7939;50.814;6.368;2023-06-10T04:34:47;8.35;;;7.55;;
15677;SDS011;7939;50.814;6.368;2023-06-10T04:37:13;9.20;;;8.30;;
15677;SDS011;7939;50.814;6.368;2023-06-10T04:39:40;8.70;;;7.90;;
15677;SDS011;7939;50.814;6.368;2023-06-10T04:42:07;8.48;;;7.53;;
15677;SDS011;7939;50.814;6.368;2023-06-10T04:44:33;8.88;;;7.95;;
15677;SDS011;7939;50.814;6.368;2023-06-10T04:47:01;10.05;;;8.32;;
15677;SDS011;7939;50.814;6.368;2023-06-10T04:49:28;9.10;;;8.02;;
15677;SDS011;7939;50.814;6.368;2023-06-10T04:51:55;8.98;;;7.70;;
15677;SDS011;7939;50.814;6.368;2023-06-10T04:54:21;11.05;;;9.13;;
15677;SDS011;7939;50.814;6.368;2023-06-10T04:56:48;13.43;;;8.68;;
15677;SDS011;7939;50.814;6.368;2023-06-10T04:59:14;9.10;;;8.10;;
15677;SDS011;7939;50.814;6.368;2023-06-10T05:01:41;10.68;;;7.85;;
15677;SDS011;7939;50.814;6.368;2023-06-10T05:04:09;9.13;;;7.45;;
15677;SDS011;7939;50.814;6.368;2023-06-10T05:06:35;9.80;;;8.18;;
15677;SDS011;7939;50.814;6.368;2023-06-10T05:09:02;10.65;;;7.85;;
15677;SDS011;7939;50.814;6.368;2023-06-10T05:11:29;8.50;;;7.70;;
15677;SDS011;7939;50.814;6.368;2023-06-10T05:13:55;8.98;;;7.82;;
15677;SDS011;7939;50.814;6.368;2023-06-10T05:16:22;9.30;;;7.93;;
15677;SDS011;7939;50.814;6.368;2023-06-10T05:18:49;8.70;;;7.85;;
15677;SDS011;7939;50.814;6.368;2023-06-10T05:21:18;8.90;;;7.85;;
15677;SDS011;7939;50.814;6.368;2023-06-10T05:23:45;10.63;;;8.77;;
15677;SDS011;7939;50.814;6.368;2023-06-10T05:26:12;10.23;;;7.90;;
15677;SDS011;7939;50.814;6.368;2023-06-10T05:28:39;9.65;;;8.63;;
15677;SDS011;7939;50.814;6.368;2023-06-10T05:31:05;10.98;;;8.70;;
15677;SDS011;7939;50.814;6.368;2023-06-10T05:33:32;12.13;;;8.57;;
15677;SDS011;7939;50.814;6.368;2023-06-10T05:35:59;9.93;;;8.32;;
15677;SDS011;7939;50.814;6.368;2023-06-10T05:38:27;8.82;;;7.95;;
15677;SDS011;7939;50.814;6.368;2023-06-10T05:40:53;8.30;;;7.50;;
15677;SDS011;7939;50.814;6.368;2023-06-10T05:43:22;10.60;;;8.65;;
15677;SDS011;7939;50.814;6.368;2023-06-10T05:45:48;8.70;;;7.85;;
15677;SDS011;7939;50.814;6.368;2023-06-10T05:48:15;10.20;;;9.18;;
15677;SDS011;7939;50.814;6.368;2023-06-10T05:50:42;10.20;;;9.10;;
15677;SDS011;7939;50.814;6.368;2023-06-10T05:53:13;10.35;;;9.27;;
15677;SDS011;7939;50.814;6.368;2023-06-10T05:55:41;9.10;;;8.13;;
15677;SDS011;7939;50.814;6.368;2023-06-10T05:58:08;11.18;;;8.75;;
15677;SDS011;7939;50.814;6.368;2023-06-10T06:00:35;13.95;;;9.25;;
15677;SDS011;7939;50.814;6.368;2023-06-10T06:03:02;9.88;;;8.88;;
15677;SDS011;7939;50.814;6.368;2023-06-10T06:05:28;13.43;;;9.48;;
15677;SDS011;7939;50.814;6.368;2023-06-10T06:07:59;12.27;;;9.05;;
15677;SDS011;7939;50.814;6.368;2023-06-10T06:10:27;14.10;;;10.93;;
15677;SDS011;7939;50.814;6.368;2023-06-10T06:12:55;13.15;;;10.50;;
15677;SDS011;7939;50.814;6.368;2023-06-10T06:15:22;13.25;;;10.77;;
15677;SDS011;7939;50.814;6.368;2023-06-10T06:17:49;15.00;;;10.93;;
15677;SDS011;7939;50.814;6.368;2023-06-10T06:20:17;12.77;;;9.55;;
15677;SDS011;7939;50.814;6.368;2023-06-10T06:22:44;12.77;;;10.48;;
15677;SDS011;7939;50.814;6.368;2023-06-10T06:25:11;13.68;;;10.38;;
15677;SDS011;7939;50.814;6.368;2023-06-10T06:27:37;12.05;;;10.50;;
15677;SDS011;7939;50.814;6.368;2023-06-10T06:30:06;12.35;;;10.80;;
15677;SDS011;7939;50.814;6.368;2023-06-10T06:32:33;11.40;;;9.85;;
15677;SDS011;7939;50.814;6.368;2023-06-10T06:35:00;10.13;;;9.05;;
15677;SDS011;7939;50.814;6.368;2023-06-10T06:37:27;9.45;;;8.45;;
15677;SDS011;7939;50.814;6.368;2023-06-10T06:39:53;11.55;;;10.45;;
15677;SDS011;7939;50.814;6.368;2023-06-10T06:42:20;11.50;;;9.60;;
15677;SDS011;7939;50.814;6.368;2023-06-10T06:44:47;11.57;;;9.43;;
15677;SDS011;7939;50.814;6.368;2023-06-10T06:47:15;12.93;;;9.82;;
15677;SDS011;7939;50.814;6.368;2023-06-10T06:49:44;13.13;;;9.35;;
15677;SDS011;7939;50.814;6.368;2023-06-10T06:52:11;13.38;;;9.75;;
15677;SDS011;7939;50.814;6.368;2023-06-10T06:54:38;12.80;;;9.40;;
15677;SDS011;7939;50.814;6.368;2023-06-10T06:57:04;14.93;;;10.25;;
15677;SDS011;7939;50.814;6.368;2023-06-10T06:59:32;12.38;;;9.75;;
15677;SDS011;7939;50.814;6.368;2023-06-10T07:01:59;11.02;;;9.57;;
15677;SDS011;7939;50.814;6.368;2023-06-10T07:04:27;15.48;;;10.77;;
15677;SDS011;7939;50.814;6.368;2023-06-10T07:06:54;10.27;;;9.25;;
15677;SDS011;7939;50.814;6.368;2023-06-10T07:09:20;10.40;;;9.02;;
15677;SDS011;7939;50.814;6.368;2023-06-10T07:11:47;10.65;;;8.98;;
15677;SDS011;7939;50.814;6.368;2023-06-10T07:14:13;12.23;;;9.23;;
15677;SDS011;7939;50.814;6.368;2023-06-10T07:16:40;10.20;;;8.50;;
15677;SDS011;7939;50.814;6.368;2023-06-10T07:19:07;11.57;;;7.75;;
15677;SDS011;7939;50.814;6.368;2023-06-10T07:21:35;8.85;;;7.55;;
15677;SDS011;7939;50.814;6.368;2023-06-10T07:24:01;9.73;;;7.75;;
15677;SDS011;7939;50.814;6.368;2023-06-10T07:26:28;10.57;;;6.60;;
15677;SDS011;7939;50.814;6.368;2023-06-10T07:28:55;9.07;;;7.32;;
15677;SDS011;7939;50.814;6.368;2023-06-10T07:31:22;8.57;;;7.38;;
15677;SDS011;7939;50.814;6.368;2023-06-10T07:33:49;7.65;;;6.85;;
15677;SDS011;7939;50.814;6.368;2023-06-10T07:36:16;8.52;;;6.50;;
15677;SDS011;7939;50.814;6.368;2023-06-10T07:38:44;10.48;;;7.38;;
15677;SDS011;7939;50.814;6.368;2023-06-10T07:41:11;12.70;;;7.10;;
15677;SDS011;7939;50.814;6.368;2023-06-10T07:43:37;12.52;;;7.20;;
15677;SDS011;7939;50.814;6.368;2023-06-10T07:46:04;7.63;;;6.43;;
15677;SDS011;7939;50.814;6.368;2023-06-10T07:48:31;7.35;;;6.50;;
15677;SDS011;7939;50.814;6.368;2023-06-10T07:50:58;8.73;;;7.25;;
15677;SDS011;7939;50.814;6.368;2023-06-10T07:53:24;10.73;;;7.43;;
15677;SDS011;7939;50.814;6.368;2023-06-10T07:55:52;10.63;;;7.53;;
15677;SDS011;7939;50.814;6.368;2023-06-10T07:58:19;7.63;;;6.82;;
15677;SDS011;7939;50.814;6.368;2023-06-10T08:00:46;7.97;;;6.57;;
15677;SDS011;7939;50.814;6.368;2023-06-10T08:03:13;9.45;;;7.13;;
15677;SDS011;7939;50.814;6.368;2023-06-10T08:05:40;7.28;;;6.57;;
15677;SDS011;7939;50.814;6.368;2023-06-10T08:08:07;9.13;;;6.97;;
15677;SDS011;7939;50.814;6.368;2023-06-10T08:10:33;7.80;;;7.00;;
15677;SDS011;7939;50.814;6.368;2023-06-10T08:13:01;27.90;;;9.25;;
15677;SDS011;7939;50.814;6.368;2023-06-10T08:15:28;9.63;;;7.10;;
15677;SDS011;7939;50.814;6.368;2023-06-10T08:17:54;8.63;;;6.40;;
15677;SDS011;7939;50.814;6.368;2023-06-10T08:20:21;9.57;;;6.80;;
15677;SDS011;7939;50.814;6.368;2023-06-10T08:22:48;8.07;;;6.80;;
15677;SDS011;7939;50.814;6.368;2023-06-10T08:25:15;9.90;;;7.72;;
15677;SDS011;7939;50.814;6.368;2023-06-10T08:27:42;9.02;;;7.53;;
15677;SDS011;7939;50.814;6.368;2023-06-10T08:30:11;8.63;;;7.63;;
15677;SDS011;7939;50.814;6.368;2023-06-10T08:32:38;8.15;;;6.30;;
15677;SDS011;7939;50.814;6.368;2023-06-10T08:35:05;11.32;;;6.65;;
15677;SDS011;7939;50.814;6.368;2023-06-10T08:37:32;8.68;;;6.70;;
15677;SDS011;7939;50.814;6.368;2023-06-10T08:39:59;10.18;;;7.28;;
15677;SDS011;7939;50.814;6.368;2023-06-10T08:42:27;8.38;;;7.43;;
15677;SDS011;7939;50.814;6.368;2023-06-10T08:44:58;9.10;;;6.72;;
15677;SDS011;7939;50.814;6.368;2023-06-10T08:47:29;7.10;;;6.43;;
15677;SDS011;7939;50.814;6.368;2023-06-10T08:49:57;9.27;;;6.25;;
15677;SDS011;7939;50.814;6.368;2023-06-10T08:52:29;7.07;;;6.47;;
15677;SDS011;7939;50.814;6.368;2023-06-10T08:55:03;8.52;;;7.28;;
15677;SDS011;7939;50.814;6.368;2023-06-10T08:57:36;8.27;;;6.47;;
15677;SDS011;7939;50.814;6.368;2023-06-10T09:00:03;7.88;;;6.93;;
15677;SDS011;7939;50.814;6.368;2023-06-10T09:02:33;8.45;;;7.47;;
15677;SDS011;7939;50.814;6.368;2023-06-10T09:05:01;9.10;;;6.75;;
15677;SDS011;7939;50.814;6.368;2023-06-10T09:07:29;8.95;;;7.30;;
15677;SDS011;7939;50.814;6.368;2023-06-10T09:09:59;8.45;;;6.13;;
15677;SDS011;7939;50.814;6.368;2023-06-10T09:12:28;8.07;;;6.18;;
15677;SDS011;7939;50.814;6.368;2023-06-10T09:14:56;12.05;;;6.53;;
15677;SDS011;7939;50.814;6.368;2023-06-10T09:17:23;9.07;;;6.75;;
15677;SDS011;7939;50.814;6.368;2023-06-10T09:19:51;9.15;;;7.28;;
15677;SDS011;7939;50.814;6.368;2023-06-10T09:22:20;9.57;;;7.55;;
15677;SDS011;7939;50.814;6.368;2023-06-10T09:24:47;7.80;;;6.60;;
15677;SDS011;7939;50.814;6.368;2023-06-10T09:27:14;9.15;;;6.97;;
15677;SDS011;7939;50.814;6.368;2023-06-10T09:29:48;9.98;;;6.22;;
15677;SDS011;7939;50.814;6.368;2023-06-10T09:32:18;8.50;;;6.45;;
15677;SDS011;7939;50.814;6.368;2023-06-10T09:34:46;6.90;;;6.20;;
15677;SDS011;7939;50.814;6.368;2023-06-10T09:37:14;9.98;;;7.03;;
15677;SDS011;7939;50.814;6.368;2023-06-10T09:39:53;33.80;;;9.73;;
15677;SDS011;7939;50.814;6.368;2023-06-10T09:42:29;11.60;;;6.70;;
15677;SDS011;7939;50.814;6.368;2023-06-10T09:44:58;10.10;;;7.30;;
15677;SDS011;7939;50.814;6.368;2023-06-10T09:47:25;7.75;;;6.95;;
15677;SDS011;7939;50.814;6.368;2023-06-10T09:49:52;10.00;;;7.18;;
15677;SDS011;7939;50.814;6.368;2023-06-10T09:52:22;9.02;;;7.03;;
15677;SDS011;7939;50.814;6.368;2023-06-10T09:54:50;8.38;;;7.47;;
15677;SDS011;7939;50.814;6.368;2023-06-10T09:57:17;11.95;;;8.10;;
15677;SDS011;7939;50.814;6.368;2023-06-10T09:59:44;10.10;;;7.63;;
15677;SDS011;7939;50.814;6.368;2023-06-10T10:02:13;6.90;;;6.25;;
15677;SDS011;7939;50.814;6.368;2023-06-10T10:04:40;8.65;;;7.38;;
15677;SDS011;7939;50.814;6.368;2023-06-10T10:07:07;9.68;;;7.55;;
15677;SDS011;7939;50.814;6.368;2023-06-10T10:09:35;7.97;;;6.80;;
15677;SDS011;7939;50.814;6.368;2023-06-10T10:12:02;9.27;;;7.22;;
15677;SDS011;7939;50.814;6.368;2023-06-10T10:14:32;8.05;;;6.97;;
15677;SDS011;7939;50.814;6.368;2023-06-10T10:17:00;8.23;;;7.15;;
15677;SDS011;7939;50.814;6.368;2023-06-10T10:19:30;14.02;;;7.65;;
15677;SDS011;7939;50.814;6.368;2023-06-10T10:22:01;8.38;;;6.95;;
15677;SDS011;7939;50.814;6.368;2023-06-10T10:24:31;8.98;;;8.07;;
15677;SDS011;7939;50.814;6.368;2023-06-10T10:27:03;9.70;;;7.10;;
15677;SDS011;7939;50.814;6.368;2023-06-10T10:29:38;8.77;;;6.50;;
15677;SDS011;7939;50.814;6.368;2023-06-10T10:32:06;12.85;;;7.82;;
15677;SDS011;7939;50.814;6.368;2023-06-10T10:34:34;9.63;;;7.65;;
15677;SDS011;7939;50.814;6.368;2023-06-10T10:37:05;12.15;;;7.65;;
15677;SDS011;7939;50.814;6.368;2023-06-10T10:39:32;8.90;;;7.50;;
15677;SDS011;7939;50.814;6.368;2023-06-10T10:42:02;9.48;;;7.28;;
15677;SDS011;7939;50.814;6.368;2023-06-10T10:44:30;8.60;;;7.38;;
15677;SDS011;7939;50.814;6.368;2023-06-10T10:46:57;9.15;;;7.80;;
15677;SDS011;7939;50.814;6.368;2023-06-10T10:49:29;10.65;;;8.57;;
15677;SDS011;7939;50.814;6.368;2023-06-10T10:51:57;14.30;;;8.30;;
15677;SDS011;7939;50.814;6.368;2023-06-10T10:54:31;10.88;;;8.07;;
15677;SDS011;7939;50.814;6.368;2023-06-10T10:57:15;8.88;;;7.65;;
15677;SDS011;7939;50.814;6.368;2023-06-10T10:59:43;12.25;;;7.95;;
15677;SDS011;7939;50.814;6.368;2023-06-10T11:02:37;9.73;;;7.25;;
15677;SDS011;7939;50.814;6.368;2023-06-10T11:05:08;8.82;;;7.20;;
15677;SDS011;7939;50.814;6.368;2023-06-10T11:07:36;7.80;;;7.05;;
15677;SDS011;7939;50.814;6.368;2023-06-10T11:10:06;10.30;;;7.72;;
15677;SDS011;7939;50.814;6.368;2023-06-10T11:12:43;9.18;;;6.70;;
15677;SDS011;7939;50.814;6.368;2023-06-10T11:15:17;8.77;;;7.90;;
15677;SDS011;7939;50.814;6.368;2023-06-10T11:20:42;8.40;;;7.50;;
15677;SDS011;7939;50.814;6.368;2023-06-10T11:23:10;11.38;;;7.75;;
15677;SDS011;7939;50.814;6.368;2023-06-10T11:25:38;13.43;;;7.85;;
15677;SDS011;7939;50.814;6.368;2023-06-10T11:28:17;8.27;;;6.50;;
15677;SDS011;7939;50.814;6.368;2023-06-10T11:30:44;6.70;;;6.10;;
15677;SDS011;7939;50.814;6.368;2023-06-10T11:33:13;8.90;;;6.70;;
15677;SDS011;7939;50.814;6.368;2023-06-10T11:35:41;9.07;;;6.80;;
15677;SDS011;7939;50.814;6.368;2023-06-10T11:38:08;9.38;;;6.32;;
15677;SDS011;7939;50.814;6.368;2023-06-10T11:40:36;8.82;;;6.80;;
15677;SDS011;7939;50.814;6.368;2023-06-10T11:43:03;7.95;;;6.75;;
15677;SDS011;7939;50.814;6.368;2023-06-10T11:45:32;9.68;;;6.13;;
15677;SDS011;7939;50.814;6.368;2023-06-10T11:47:58;9.15;;;6.80;;
15677;SDS011;7939;50.814;6.368;2023-06-10T11:50:29;9.52;;;6.03;;
15677;SDS011;7939;50.814;6.368;2023-06-10T11:52:56;7.07;;;6.40;;
15677;SDS011;7939;50.814;6.368;2023-06-10T11:55:23;8.02;;;6.68;;
15677;SDS011;7939;50.814;6.368;2023-06-10T11:57:51;7.18;;;6.45;;
15677;SDS011;7939;50.814;6.368;2023-06-10T12:00:22;7.38;;;6.60;;
15677;SDS011;7939;50.814;6.368;2023-06-10T12:02:55;7.90;;;6.57;;
15677;SDS011;7939;50.814;6.368;2023-06-10T12:05:23;6.45;;;5.60;;
15677;SDS011;7939;50.814;6.368;2023-06-10T12:08:05;6.97;;;6.38;;
15677;SDS011;7939;50.814;6.368;2023-06-10T12:10:38;11.05;;;7.43;;
15677;SDS011;7939;50.814;6.368;2023-06-10T12:13:06;7.30;;;6.60;;
15677;SDS011;7939;50.814;6.368;2023-06-10T12:15:32;8.95;;;6.50;;
15677;SDS011;7939;50.814;6.368;2023-06-10T12:18:00;7.82;;;6.38;;
15677;SDS011;7939;50.814;6.368;2023-06-10T12:20:27;6.38;;;5.78;;
15677;SDS011;7939;50.814;6.368;2023-06-10T12:22:55;6.40;;;5.82;;
15677;SDS011;7939;50.814;6.368;2023-06-10T12:25:24;6.50;;;5.80;;
15677;SDS011;7939;50.814;6.368;2023-06-10T12:27:51;6.07;;;5.47;;
15677;SDS011;7939;50.814;6.368;2023-06-10T12:30:19;6.88;;;5.65;;
15677;SDS011;7939;50.814;6.368;2023-06-10T12:32:47;10.50;;;7.22;;
15677;SDS011;7939;50.814;6.368;2023-06-10T12:35:16;6.60;;;5.72;;
15677;SDS011;7939;50.814;6.368;2023-06-10T12:37:54;6.43;;;5.32;;
15677;SDS011;7939;50.814;6.368;2023-06-10T12:40:25;6.93;;;5.57;;
15677;SDS011;7939;50.814;6.368;2023-06-10T12:42:53;6.00;;;5.50;;
15677;SDS011;7939;50.814;6.368;2023-06-10T12:45:25;8.27;;;6.63;;
15677;SDS011;7939;50.814;6.368;2023-06-10T12:48:03;7.95;;;5.93;;
15677;SDS011;7939;50.814;6.368;2023-06-10T12:50:32;6.95;;;6.15;;
15677;SDS011;7939;50.814;6.368;2023-06-10T12:52:59;7.78;;;5.82;;
15677;SDS011;7939;50.814;6.368;2023-06-10T12:55:25;7.25;;;5.85;;
15677;SDS011;7939;50.814;6.368;2023-06-10T12:57:53;6.40;;;5.88;;
15677;SDS011;7939;50.814;6.368;2023-06-10T13:00:20;7.68;;;6.80;;
15677;SDS011;7939;50.814;6.368;2023-06-10T13:02:48;8.32;;;7.30;;
15677;SDS011;7939;50.814;6.368;2023-06-10T13:05:15;7.57;;;6.60;;
15677;SDS011;7939;50.814;6.368;2023-06-10T13:07:44;9.90;;;6.18;;
15677;SDS011;7939;50.814;6.368;2023-06-10T13:10:11;7.50;;;6.80;;
15677;SDS011;7939;50.814;6.368;2023-06-10T13:12:38;7.25;;;6.18;;
15677;SDS011;7939;50.814;6.368;2023-06-10T13:15:05;8.75;;;6.65;;
15677;SDS011;7939;50.814;6.368;2023-06-10T13:17:33;7.22;;;6.57;;
15677;SDS011;7939;50.814;6.368;2023-06-10T13:20:01;8.00;;;5.82;;
15677;SDS011;7939;50.814;6.368;2023-06-10T13:22:28;10.55;;;6.65;;
15677;SDS011;7939;50.814;6.368;2023-06-10T13:24:57;7.72;;;6.90;;
15677;SDS011;7939;50.814;6.368;2023-06-10T13:27:23;7.90;;;6.70;;
15677;SDS011;7939;50.814;6.368;2023-06-10T13:29:50;6.50;;;5.80;;
15677;SDS011;7939;50.814;6.368;2023-06-10T13:32:17;5.55;;;5.05;;
15677;SDS011;7939;50.814;6.368;2023-06-10T13:34:43;7.15;;;5.28;;
15677;SDS011;7939;50.814;6.368;2023-06-10T13:37:10;7.80;;;6.32;;
15677;SDS011;7939;50.814;6.368;2023-06-10T13:39:37;6.22;;;5.63;;
15677;SDS011;7939;50.814;6.368;2023-06-10T13:42:06;6.25;;;5.65;;
15677;SDS011;7939;50.814;6.368;2023-06-10T13:44:33;7.57;;;5.68;;
15677;SDS011;7939;50.814;6.368;2023-06-10T13:47:01;26.15;;;7.93;;
15677;SDS011;7939;50.814;6.368;2023-06-10T13:49:28;7.93;;;5.80;;
15677;SDS011;7939;50.814;6.368;2023-06-10T13:51:54;9.77;;;6.90;;
15677;SDS011;7939;50.814;6.368;2023-06-10T13:54:21;7.38;;;5.63;;
15677;SDS011;7939;50.814;6.368;2023-06-10T13:56:48;7.68;;;6.32;;
15677;SDS011;7939;50.814;6.368;2023-06-10T13:59:16;8.15;;;5.85;;
15677;SDS011;7939;50.814;6.368;2023-06-10T14:01:45;10.43;;;6.07;;
15677;SDS011;7939;50.814;6.368;2023-06-10T14:04:11;7.95;;;5.75;;
15677;SDS011;7939;50.814;6.368;2023-06-10T14:06:38;7.03;;;5.28;;
15677;SDS011;7939;50.814;6.368;2023-06-10T14:09:05;6.78;;;6.07;;
15677;SDS011;7939;50.814;6.368;2023-06-10T14:11:31;9.23;;;6.10;;
15677;SDS011;7939;50.814;6.368;2023-06-10T14:13:58;6.57;;;5.97;;
15677;SDS011;7939;50.814;6.368;2023-06-10T14:16:27;6.88;;;5.88;;
15677;SDS011;7939;50.814;6.368;2023-06-10T14:18:54;6.85;;;5.80;;
15677;SDS011;7939;50.814;6.368;2023-06-10T14:21:20;6.10;;;5.53;;
15677;SDS011;7939;50.814;6.368;2023-06-10T14:23:47;11.25;;;5.72;;
15677;SDS011;7939;50.814;6.368;2023-06-10T14:26:15;7.85;;;5.35;;
15677;SDS011;7939;50.814;6.368;2023-06-10T14:28:41;6.43;;;5.10;;
15677;SDS011;7939;50.814;6.368;2023-06-10T14:31:08;5.63;;;5.13;;
15677;SDS011;7939;50.814;6.368;2023-06-10T14:33:36;7.07;;;6.32;;
15677;SDS011;7939;50.814;6.368;2023-06-10T14:36:03;6.13;;;5.05;;
15677;SDS011;7939;50.814;6.368;2023-06-10T14:38:29;7.10;;;5.25;;
15677;SDS011;7939;50.814;6.368;2023-06-10T14:40:56;7.18;;;5.10;;
15677;SDS011;7939;50.814;6.368;2023-06-10T14:43:23;5.55;;;5.05;;
15677;SDS011;7939;50.814;6.368;2023-06-10T14:45:50;5.53;;;4.78;;
15677;SDS011;7939;50.814;6.368;2023-06-10T14:48:17;7.63;;;4.88;;
15677;SDS011;7939;50.814;6.368;2023-06-10T14:50:45;5.47;;;4.93;;
15677;SDS011;7939;50.814;6.368;2023-06-10T14:53:15;5.55;;;4.63;;
15677;SDS011;7939;50.814;6.368;2023-06-10T14:55:42;5.45;;;4.95;;
15677;SDS011;7939;50.814;6.368;2023-06-10T14:58:09;5.65;;;4.82;;
15677;SDS011;7939;50.814;6.368;2023-06-10T15:00:36;8.82;;;6.55;;
15677;SDS011;7939;50.814;6.368;2023-06-10T15:03:02;5.38;;;4.88;;